createdAt,value
2019-03-05T00:00:08.430Z,63.81
2019-03-05T00:01:08.334Z,63.71
2019-03-05T00:02:08.331Z,63.50
2019-03-05T00:03:08.323Z,64.53
2019-03-05T00:04:08.307Z,63.60
2019-03-05T00:05:08.304Z,64.64
2019-03-05T00:06:08.296Z,63.40
2019-03-05T00:07:08.261Z,63.60
2019-03-05T00:08:08.244Z,64.22
2019-03-05T00:09:08.240Z,63.29
2019-03-05T00:10:08.234Z,63.71
2019-03-05T00:11:08.330Z,64.53
2019-03-05T00:12:08.231Z,64.12
2019-03-05T00:13:08.202Z,64.22
2019-03-05T00:14:08.186Z,64.32
2019-03-05T00:15:08.180Z,64.32
2019-03-05T00:16:08.180Z,64.02
2019-03-05T00:17:08.165Z,64.32
2019-03-05T00:18:08.143Z,63.71
2019-03-05T00:19:08.135Z,63.71
2019-03-05T00:20:08.122Z,63.81
2019-03-05T00:21:08.162Z,64.22
2019-03-05T00:22:08.117Z,63.81
2019-03-05T00:23:08.520Z,63.92
2019-03-05T00:24:08.108Z,64.53
2019-03-05T00:25:08.068Z,64.02
2019-03-05T00:26:08.067Z,63.19
2019-03-05T00:27:08.080Z,63.47
2019-03-05T00:28:08.040Z,63.27
2019-03-05T00:29:08.091Z,63.37
2019-03-05T00:30:08.007Z,63.37
2019-03-05T00:31:07.997Z,63.47
2019-03-05T00:32:08.015Z,63.47
2019-03-05T00:33:07.978Z,63.57
2019-03-05T00:34:07.979Z,64.29
2019-03-05T00:35:07.962Z,63.57
2019-03-05T00:36:07.951Z,63.37
2019-03-05T00:37:07.981Z,63.37
2019-03-05T00:38:07.939Z,63.99
2019-03-05T00:39:07.923Z,63.78
2019-03-05T00:40:07.900Z,63.78
2019-03-05T00:41:07.908Z,63.57
2019-03-05T00:42:16.167Z,63.78
2019-03-05T00:43:07.880Z,63.68
2019-03-05T00:44:07.870Z,64.09
2019-03-05T00:45:07.864Z,63.57
2019-03-05T00:46:07.839Z,63.68
2019-03-05T00:47:07.830Z,63.17
2019-03-05T00:48:07.853Z,63.06
2019-03-05T00:49:07.823Z,63.47
2019-03-05T00:50:07.791Z,63.78
2019-03-05T00:51:07.809Z,63.27
2019-03-05T00:52:07.772Z,63.78
2019-03-05T00:53:07.782Z,63.47
2019-03-05T00:54:07.752Z,63.45
2019-03-05T00:55:07.747Z,63.47
2019-03-05T00:56:07.734Z,63.57
2019-03-05T00:57:07.767Z,63.78
2019-03-05T00:58:07.750Z,63.99
2019-03-05T00:59:07.698Z,63.68
2019-03-05T01:00:07.696Z,63.99
2019-03-05T01:01:07.679Z,64.09
2019-03-05T01:02:07.672Z,63.65
2019-03-05T01:03:07.686Z,63.85
2019-03-05T01:04:07.642Z,63.65
2019-03-05T01:05:07.642Z,63.65
2019-03-05T01:06:07.628Z,63.13
2019-03-05T01:07:07.606Z,62.93
2019-03-05T01:08:07.682Z,63.03
2019-03-05T01:09:07.643Z,62.93
2019-03-05T01:10:07.580Z,62.72
2019-03-05T01:11:07.573Z,63.24
2019-03-05T01:12:07.573Z,62.72
2019-03-05T01:13:07.545Z,63.24
2019-03-05T01:14:07.887Z,63.13
2019-03-05T01:15:07.524Z,62.00
2019-03-05T01:16:07.513Z,62.10
2019-03-05T01:17:07.506Z,62.21
2019-03-05T01:18:07.494Z,63.24
2019-03-05T01:19:07.500Z,61.80
2019-03-05T01:20:07.466Z,62.62
2019-03-05T01:21:07.454Z,63.13
2019-03-05T01:22:07.455Z,62.72
2019-03-05T01:23:07.458Z,62.72
2019-03-05T01:24:07.468Z,62.72
2019-03-05T01:25:07.421Z,62.82
2019-03-05T01:26:07.402Z,62.75
2019-03-05T01:27:07.392Z,62.85
2019-03-05T01:28:07.384Z,62.54
2019-03-05T01:29:07.400Z,62.72
2019-03-05T01:30:07.366Z,62.75
2019-03-05T01:31:07.356Z,63.17
2019-03-05T01:32:07.340Z,62.65
2019-03-05T01:33:07.326Z,63.06
2019-03-05T01:34:07.325Z,62.96
2019-03-05T01:35:07.331Z,63.06
2019-03-05T01:36:07.303Z,63.17
2019-03-05T01:37:07.284Z,63.27
2019-03-05T01:38:07.276Z,63.17
2019-03-05T01:39:07.262Z,63.78
2019-03-05T01:40:07.272Z,63.06
2019-03-05T01:41:07.254Z,63.47
2019-03-05T01:42:07.270Z,63.57
2019-03-05T01:43:07.213Z,63.78
2019-03-05T01:44:07.208Z,64.12
2019-03-05T01:45:07.222Z,63.57
2019-03-05T01:46:07.200Z,63.71
2019-03-05T01:47:07.181Z,63.40
2019-03-05T01:48:07.214Z,63.71
2019-03-05T01:49:07.153Z,63.60
2019-03-05T01:50:15.463Z,63.37
2019-03-05T01:51:15.924Z,63.40
2019-03-05T01:52:15.948Z,64.74
2019-03-05T01:53:15.989Z,64.43
2019-03-05T01:54:16.020Z,63.60
2019-03-05T01:55:15.397Z,63.40
2019-03-05T01:56:16.071Z,63.40
2019-03-05T01:57:15.382Z,63.19
2019-03-05T01:58:07.076Z,64.32
2019-03-05T01:59:07.052Z,64.12
2019-03-05T02:00:07.074Z,63.92
2019-03-05T02:01:07.024Z,63.71
2019-03-05T02:02:07.011Z,63.81
2019-03-05T02:03:07.008Z,64.12
2019-03-05T02:04:06.998Z,65.15
2019-03-05T02:05:06.996Z,64.95
2019-03-05T02:06:06.996Z,64.98
2019-03-05T02:07:06.964Z,65.15
2019-03-05T02:08:06.953Z,65.05
2019-03-05T02:09:06.933Z,64.95
2019-03-05T02:10:06.936Z,65.08
2019-03-05T02:11:06.963Z,64.64
2019-03-05T02:12:06.906Z,64.32
2019-03-05T02:13:06.897Z,63.81
2019-03-05T02:14:06.891Z,64.02
2019-03-05T02:15:06.885Z,63.71
2019-03-05T02:16:06.886Z,63.92
2019-03-05T02:17:06.851Z,64.74
2019-03-05T02:18:06.895Z,63.92
2019-03-05T02:19:06.823Z,63.92
2019-03-05T02:20:06.823Z,63.71
2019-03-05T02:21:06.849Z,64.64
2019-03-05T02:22:06.811Z,64.29
2019-03-05T02:23:06.789Z,63.89
2019-03-05T02:24:06.771Z,63.71
2019-03-05T02:25:06.767Z,63.78
2019-03-05T02:26:06.789Z,63.71
2019-03-05T02:27:06.751Z,64.02
2019-03-05T02:28:06.748Z,64.53
2019-03-05T02:29:06.756Z,64.53
2019-03-05T02:30:06.710Z,64.22
2019-03-05T02:31:06.713Z,63.81
2019-03-05T02:32:06.717Z,65.05
2019-03-05T02:33:06.679Z,63.81
2019-03-05T02:34:06.668Z,63.81
2019-03-05T02:35:06.671Z,63.81
2019-03-05T02:36:06.647Z,64.02
2019-03-05T02:37:06.683Z,64.46
2019-03-05T02:38:06.621Z,65.88
2019-03-05T02:39:06.627Z,64.56
2019-03-05T02:40:06.599Z,64.98
2019-03-05T02:41:06.592Z,64.77
2019-03-05T02:42:06.704Z,65.18
2019-03-05T02:43:06.591Z,64.98
2019-03-05T02:44:06.566Z,65.08
2019-03-05T02:45:06.578Z,65.59
2019-03-05T02:46:06.540Z,65.70
2019-03-05T02:47:06.571Z,65.49
2019-03-05T02:48:06.518Z,65.59
2019-03-05T02:49:06.500Z,65.49
2019-03-05T02:50:06.505Z,65.62
2019-03-05T02:51:06.596Z,65.83
2019-03-05T02:52:06.504Z,65.80
2019-03-05T02:53:06.461Z,65.83
2019-03-05T02:54:06.452Z,65.94
2019-03-05T02:55:06.441Z,66.01
2019-03-05T02:56:06.441Z,66.52
2019-03-05T02:57:06.414Z,66.55
2019-03-05T02:58:06.422Z,66.45
2019-03-05T02:59:06.402Z,65.94
2019-03-05T03:00:06.397Z,66.04
2019-03-05T03:01:06.374Z,66.04
2019-03-05T03:02:06.374Z,65.73
2019-03-05T03:03:06.400Z,66.66
2019-03-05T03:04:06.342Z,66.35
2019-03-05T03:05:06.334Z,66.35
2019-03-05T03:06:06.353Z,66.14
2019-03-05T03:07:06.312Z,66.35
2019-03-05T03:08:06.331Z,66.55
2019-03-05T03:09:06.323Z,66.76
2019-03-05T03:10:06.280Z,66.86
2019-03-05T03:11:06.273Z,66.66
2019-03-05T03:12:06.266Z,66.66
2019-03-05T03:13:06.266Z,66.66
2019-03-05T03:14:06.254Z,66.86
2019-03-05T03:15:06.230Z,66.76
2019-03-05T03:16:06.229Z,66.97
2019-03-05T03:17:06.208Z,66.86
2019-03-05T03:18:06.226Z,66.76
2019-03-05T03:19:06.191Z,66.76
2019-03-05T03:20:06.192Z,67.07
2019-03-05T03:21:06.165Z,67.38
2019-03-05T03:22:06.158Z,66.94
2019-03-05T03:23:06.148Z,66.76
2019-03-05T03:24:06.172Z,66.55
2019-03-05T03:25:06.149Z,67.24
2019-03-05T03:26:06.156Z,67.48
2019-03-05T03:27:06.093Z,67.17
2019-03-05T03:28:06.095Z,67.17
2019-03-05T03:29:06.104Z,67.27
2019-03-05T03:30:06.101Z,67.27
2019-03-05T03:31:06.273Z,67.17
2019-03-05T03:32:06.049Z,67.03
2019-03-05T03:33:06.037Z,67.14
2019-03-05T03:34:06.071Z,67.03
2019-03-05T03:35:06.004Z,67.14
2019-03-05T03:36:06.005Z,67.35
2019-03-05T03:37:06.003Z,67.03
2019-03-05T03:38:06.015Z,67.35
2019-03-05T03:39:05.980Z,67.14
2019-03-05T03:40:06.277Z,67.42
2019-03-05T03:41:05.953Z,66.60
2019-03-05T03:42:05.936Z,66.60
2019-03-05T03:43:05.945Z,67.32
2019-03-05T03:44:05.938Z,66.91
2019-03-05T03:45:05.904Z,66.80
2019-03-05T03:46:05.887Z,66.18
2019-03-05T03:47:05.883Z,66.70
2019-03-05T03:48:05.864Z,66.49
2019-03-05T03:49:05.884Z,66.60
2019-03-05T03:50:05.849Z,66.56
2019-03-05T03:51:05.836Z,66.77
2019-03-05T03:52:05.838Z,66.56
2019-03-05T03:53:05.815Z,66.36
2019-03-05T03:54:05.802Z,66.67
2019-03-05T03:55:05.823Z,66.56
2019-03-05T03:56:05.832Z,66.36
2019-03-05T03:57:05.785Z,66.56
2019-03-05T03:58:05.757Z,66.77
2019-03-05T03:59:05.749Z,66.36
2019-03-05T04:00:05.764Z,66.56
2019-03-05T04:01:07.249Z,66.56
2019-03-05T04:02:05.715Z,66.67
2019-03-05T04:03:05.698Z,66.67
2019-03-05T04:04:05.692Z,66.46
2019-03-05T04:05:05.807Z,67.18
2019-03-05T04:06:05.682Z,66.97
2019-03-05T04:07:05.681Z,66.46
2019-03-05T04:08:05.655Z,67.08
2019-03-05T04:09:05.641Z,67.08
2019-03-05T04:10:05.666Z,66.87
2019-03-05T04:11:05.641Z,66.97
2019-03-05T04:12:05.624Z,67.29
2019-03-05T04:13:05.617Z,67.49
2019-03-05T04:14:05.603Z,67.18
2019-03-05T04:15:05.576Z,67.29
2019-03-05T04:16:05.584Z,67.70
2019-03-05T04:17:05.558Z,67.60
2019-03-05T04:18:05.558Z,68.11
2019-03-05T04:19:05.535Z,67.70
2019-03-05T04:20:05.517Z,68.32
2019-03-05T04:21:05.579Z,68.21
2019-03-05T04:22:05.518Z,68.21
2019-03-05T04:23:05.502Z,68.11
2019-03-05T04:24:05.499Z,67.90
2019-03-05T04:25:05.472Z,68.52
2019-03-05T04:26:05.482Z,68.32
2019-03-05T04:27:05.453Z,68.42
2019-03-05T04:28:05.441Z,68.52
2019-03-05T04:29:05.448Z,68.62
2019-03-05T04:30:05.439Z,68.93
2019-03-05T04:31:05.452Z,68.62
2019-03-05T04:32:05.403Z,69.65
2019-03-05T04:33:05.400Z,69.69
2019-03-05T04:34:05.382Z,69.69
2019-03-05T04:35:14.169Z,70.20
2019-03-05T04:36:05.375Z,70.10
2019-03-05T04:37:05.331Z,70.41
2019-03-05T04:38:05.319Z,70.72
2019-03-05T04:39:05.332Z,70.72
2019-03-05T04:40:05.309Z,71.13
2019-03-05T04:41:05.313Z,71.13
2019-03-05T04:42:05.287Z,71.34
2019-03-05T04:43:05.266Z,71.23
2019-03-05T04:44:05.259Z,71.34
2019-03-05T04:45:14.235Z,70.82
2019-03-05T04:46:13.533Z,70.72
2019-03-05T04:47:05.235Z,71.44
2019-03-05T04:48:05.222Z,71.41
2019-03-05T04:49:05.199Z,71.75
2019-03-05T04:50:05.194Z,71.75
2019-03-05T04:51:05.179Z,71.34
2019-03-05T04:52:05.190Z,71.75
2019-03-05T04:53:05.169Z,71.85
2019-03-05T04:54:05.166Z,71.75
2019-03-05T04:55:05.137Z,71.75
2019-03-05T04:56:14.267Z,72.16
2019-03-05T04:57:13.437Z,71.85
2019-03-05T04:58:05.132Z,72.27
2019-03-05T04:59:05.111Z,72.37
2019-03-05T05:00:05.084Z,72.47
2019-03-05T05:01:05.083Z,72.37
2019-03-05T05:02:05.083Z,72.37
2019-03-05T05:03:05.046Z,72.78
2019-03-05T05:04:05.047Z,72.16
2019-03-05T05:05:05.031Z,72.99
2019-03-05T05:06:05.024Z,72.99
2019-03-05T05:07:05.043Z,72.47
2019-03-05T05:08:05.011Z,72.37
2019-03-05T05:09:04.988Z,72.67
2019-03-05T05:10:04.983Z,72.88
2019-03-05T05:11:04.971Z,72.99
2019-03-05T05:12:05.109Z,73.02
2019-03-05T05:13:04.970Z,72.81
2019-03-05T05:14:04.949Z,73.02
2019-03-05T05:15:04.930Z,73.12
2019-03-05T05:16:04.923Z,72.78
2019-03-05T05:17:04.899Z,72.37
2019-03-05T05:18:04.956Z,73.02
2019-03-05T05:19:04.885Z,72.88
2019-03-05T05:20:04.870Z,72.71
2019-03-05T05:21:04.858Z,72.81
2019-03-05T05:22:04.865Z,72.81
2019-03-05T05:23:04.929Z,73.02
2019-03-05T05:24:04.822Z,73.22
2019-03-05T05:25:04.818Z,73.12
2019-03-05T05:26:04.803Z,72.81
2019-03-05T05:27:04.795Z,72.40
2019-03-05T05:28:04.837Z,72.61
2019-03-05T05:29:04.770Z,73.12
2019-03-05T05:30:04.765Z,73.02
2019-03-05T05:31:04.771Z,73.12
2019-03-05T05:32:04.739Z,73.33
2019-03-05T05:33:04.747Z,72.92
2019-03-05T05:34:04.740Z,73.64
2019-03-05T05:35:04.708Z,74.15
2019-03-05T05:36:04.703Z,73.43
2019-03-05T05:37:04.693Z,73.54
2019-03-05T05:38:04.704Z,73.54
2019-03-05T05:39:04.674Z,73.54
2019-03-05T05:40:05.004Z,73.64
2019-03-05T05:41:04.645Z,73.74
2019-03-05T05:42:04.643Z,73.54
2019-03-05T05:43:04.644Z,73.64
2019-03-05T05:44:04.618Z,72.81
2019-03-05T05:45:04.609Z,74.05
2019-03-05T05:46:04.583Z,74.05
2019-03-05T05:47:04.580Z,74.05
2019-03-05T05:48:04.591Z,73.22
2019-03-05T05:49:04.564Z,73.12
2019-03-05T05:50:04.545Z,73.43
2019-03-05T05:51:04.543Z,73.74
2019-03-05T05:52:04.531Z,74.15
2019-03-05T05:53:04.534Z,73.02
2019-03-05T05:54:04.501Z,72.71
2019-03-05T05:55:04.493Z,73.02
2019-03-05T05:56:04.498Z,72.81
2019-03-05T05:57:04.463Z,73.02
2019-03-05T05:58:04.498Z,72.50
2019-03-05T05:59:04.460Z,73.02
2019-03-05T06:00:04.434Z,72.92
2019-03-05T06:01:04.462Z,72.50
2019-03-05T06:02:13.344Z,72.50
2019-03-05T06:03:04.427Z,72.50
2019-03-05T06:04:04.429Z,72.50
2019-03-05T06:05:04.394Z,72.27
2019-03-05T06:06:04.373Z,72.27
2019-03-05T06:07:04.374Z,71.78
2019-03-05T06:08:13.381Z,71.99
2019-03-05T06:09:04.375Z,71.89
2019-03-05T06:10:04.333Z,71.89
2019-03-05T06:11:04.317Z,72.30
2019-03-05T06:12:04.320Z,71.99
2019-03-05T06:13:04.301Z,71.89
2019-03-05T06:14:04.307Z,71.68
2019-03-05T06:15:04.282Z,72.30
2019-03-05T06:16:04.300Z,72.09
2019-03-05T06:17:04.263Z,72.19
2019-03-05T06:18:04.248Z,72.19
2019-03-05T06:19:04.289Z,71.99
2019-03-05T06:20:04.253Z,72.19
2019-03-05T06:21:04.220Z,72.06
2019-03-05T06:22:04.231Z,72.30
2019-03-05T06:23:04.270Z,72.09
2019-03-05T06:24:04.200Z,72.50
2019-03-05T06:25:04.185Z,71.95
2019-03-05T06:26:04.175Z,71.89
2019-03-05T06:27:04.178Z,71.89
2019-03-05T06:28:04.137Z,71.68
2019-03-05T06:29:04.200Z,71.78
2019-03-05T06:30:04.143Z,71.44
2019-03-05T06:31:04.115Z,71.99
2019-03-05T06:32:04.132Z,71.89
2019-03-05T06:33:04.083Z,71.78
2019-03-05T06:34:04.104Z,71.44
2019-03-05T06:35:04.055Z,70.82
2019-03-05T06:36:04.046Z,71.13
2019-03-05T06:37:04.070Z,70.82
2019-03-05T06:38:04.028Z,71.34
2019-03-05T06:39:04.066Z,71.13
2019-03-05T06:40:04.009Z,70.92
2019-03-05T06:41:04.078Z,70.72
2019-03-05T06:42:03.983Z,70.92
2019-03-05T06:43:03.976Z,70.72
2019-03-05T06:44:03.979Z,71.23
2019-03-05T06:45:03.964Z,71.03
2019-03-05T06:46:03.942Z,71.23
2019-03-05T06:47:03.932Z,71.13
2019-03-05T06:48:03.935Z,70.92
2019-03-05T06:49:03.960Z,70.82
2019-03-05T06:50:03.918Z,71.23
2019-03-05T06:51:03.890Z,70.51
2019-03-05T06:52:04.140Z,71.23
2019-03-05T06:53:03.873Z,70.86
2019-03-05T06:54:03.862Z,70.72
2019-03-05T06:55:04.847Z,70.92
2019-03-05T06:56:03.865Z,70.92
2019-03-05T06:57:03.822Z,70.92
2019-03-05T06:58:03.815Z,71.13
2019-03-05T06:59:03.904Z,70.92
2019-03-05T07:00:03.825Z,70.00
2019-03-05T07:01:03.806Z,70.00
2019-03-05T07:02:03.798Z,70.62
2019-03-05T07:03:03.763Z,70.62
2019-03-05T07:04:03.745Z,70.72
2019-03-05T07:05:03.770Z,70.79
2019-03-05T07:06:03.746Z,70.62
2019-03-05T07:07:03.744Z,70.62
2019-03-05T07:08:03.698Z,70.10
2019-03-05T07:09:03.690Z,70.28
2019-03-05T07:10:03.712Z,70.28
2019-03-05T07:11:03.676Z,69.55
2019-03-05T07:12:03.826Z,69.65
2019-03-05T07:13:03.684Z,69.35
2019-03-05T07:14:03.644Z,69.45
2019-03-05T07:15:03.644Z,68.83
2019-03-05T07:16:03.700Z,68.62
2019-03-05T07:17:03.612Z,68.83
2019-03-05T07:18:03.609Z,68.73
2019-03-05T07:19:03.613Z,68.52
2019-03-05T07:20:03.634Z,68.83
2019-03-05T07:21:03.576Z,68.83
2019-03-05T07:22:03.644Z,68.52
2019-03-05T07:23:03.547Z,68.42
2019-03-05T07:24:03.549Z,68.11
2019-03-05T07:25:03.558Z,68.62
2019-03-05T07:26:03.513Z,69.24
2019-03-05T07:27:03.504Z,68.80
2019-03-05T07:28:03.500Z,67.66
2019-03-05T07:29:03.488Z,68.08
2019-03-05T07:30:03.504Z,67.66
2019-03-05T07:31:03.499Z,67.57
2019-03-05T07:32:03.454Z,68.59
2019-03-05T07:33:03.437Z,67.57
2019-03-05T07:34:03.429Z,67.22
2019-03-05T07:35:03.438Z,67.05
2019-03-05T07:36:03.432Z,66.71
2019-03-05T07:37:03.401Z,67.33
2019-03-05T07:38:03.386Z,66.61
2019-03-05T07:39:03.370Z,66.71
2019-03-05T07:40:03.374Z,66.40
2019-03-05T07:41:03.381Z,66.19
2019-03-05T07:42:03.389Z,66.16
2019-03-05T07:43:03.351Z,65.65
2019-03-05T07:44:03.326Z,65.99
2019-03-05T07:45:03.319Z,66.58
2019-03-05T07:46:03.326Z,66.06
2019-03-05T07:47:03.298Z,66.06
2019-03-05T07:48:03.310Z,66.47
2019-03-05T07:49:03.271Z,66.16
2019-03-05T07:50:03.259Z,65.95
2019-03-05T07:51:03.266Z,65.95
2019-03-05T07:52:03.234Z,65.75
2019-03-05T07:53:03.258Z,65.55
2019-03-05T07:54:03.243Z,65.44
2019-03-05T07:55:13.267Z,65.44
2019-03-05T07:56:04.232Z,65.44
2019-03-05T07:57:03.183Z,65.72
2019-03-05T07:58:03.175Z,64.59
2019-03-05T07:59:03.176Z,64.90
2019-03-05T08:00:05.387Z,64.07
2019-03-05T08:01:03.178Z,64.48
2019-03-05T08:02:03.125Z,63.76
2019-03-05T08:03:03.113Z,63.84
2019-03-05T08:04:03.111Z,64.18
2019-03-05T08:05:03.116Z,64.69
2019-03-05T08:06:03.117Z,63.56
2019-03-05T08:07:03.079Z,63.56
2019-03-05T08:08:03.080Z,63.67
2019-03-05T08:09:03.052Z,64.04
2019-03-05T08:10:03.052Z,63.67
2019-03-05T08:11:03.056Z,64.59
2019-03-05T08:12:03.013Z,64.79
2019-03-05T08:13:03.008Z,64.90
2019-03-05T08:14:02.988Z,64.79
2019-03-05T08:15:02.996Z,65.62
2019-03-05T08:16:02.997Z,65.83
2019-03-05T08:17:02.978Z,65.20
2019-03-05T08:18:02.980Z,65.48
2019-03-05T08:19:02.950Z,64.69
2019-03-05T08:20:02.928Z,64.69
2019-03-05T08:21:03.023Z,64.04
2019-03-05T08:22:02.919Z,63.74
2019-03-05T08:23:02.940Z,63.84
2019-03-05T08:24:02.886Z,63.12
2019-03-05T08:25:02.880Z,63.43
2019-03-05T08:26:02.856Z,64.15
2019-03-05T08:27:02.875Z,63.67
2019-03-05T08:28:02.866Z,63.32
2019-03-05T08:29:03.216Z,63.43
2019-03-05T08:30:13.443Z,64.28
2019-03-05T08:31:03.815Z,64.18
2019-03-05T08:32:02.839Z,64.28
2019-03-05T08:33:02.828Z,63.67
2019-03-05T08:34:02.788Z,64.39
2019-03-05T08:35:02.807Z,64.39
2019-03-05T08:36:02.762Z,64.90
2019-03-05T08:37:02.841Z,65.00
2019-03-05T08:38:02.780Z,64.59
2019-03-05T08:39:02.735Z,64.07
2019-03-05T08:40:02.744Z,63.74
2019-03-05T08:41:02.712Z,63.76
2019-03-05T08:42:02.759Z,63.76
2019-03-05T08:43:02.675Z,64.69
2019-03-05T08:44:02.691Z,64.48
2019-03-05T08:45:02.694Z,63.97
2019-03-05T08:46:02.699Z,64.18
2019-03-05T08:47:02.673Z,64.39
2019-03-05T08:48:02.670Z,64.18
2019-03-05T08:49:02.619Z,63.84
2019-03-05T08:50:02.619Z,63.02
2019-03-05T08:51:02.627Z,63.12
2019-03-05T08:52:02.606Z,62.92
2019-03-05T08:53:02.627Z,63.53
2019-03-05T08:54:02.567Z,63.53
2019-03-05T08:55:02.557Z,63.25
2019-03-05T08:56:02.534Z,63.64
2019-03-05T08:57:02.570Z,63.02
2019-03-05T08:58:02.518Z,61.68
2019-03-05T08:59:02.514Z,62.51
2019-03-05T09:00:02.500Z,62.09
2019-03-05T09:01:02.509Z,61.99
2019-03-05T09:02:02.497Z,61.58
2019-03-05T09:03:02.467Z,61.47
2019-03-05T09:04:02.465Z,61.40
2019-03-05T09:05:02.494Z,61.37
2019-03-05T09:06:02.433Z,61.79
2019-03-05T09:07:02.452Z,61.44
2019-03-05T09:08:02.416Z,61.35
2019-03-05T09:09:02.541Z,61.04
2019-03-05T09:10:02.397Z,61.68
2019-03-05T09:11:02.378Z,61.68
2019-03-05T09:12:02.372Z,61.68
2019-03-05T09:13:02.376Z,61.58
2019-03-05T09:14:02.519Z,61.79
2019-03-05T09:15:02.346Z,61.76
2019-03-05T09:16:02.321Z,61.68
2019-03-05T09:17:02.314Z,61.79
2019-03-05T09:18:02.422Z,61.47
2019-03-05T09:19:02.295Z,61.44
2019-03-05T09:20:02.313Z,62.09
2019-03-05T09:21:02.295Z,61.65
2019-03-05T09:22:02.254Z,61.55
2019-03-05T09:23:02.269Z,61.47
2019-03-05T09:24:02.245Z,61.47
2019-03-05T09:25:02.244Z,61.68
2019-03-05T09:26:02.225Z,61.79
2019-03-05T09:27:02.223Z,61.68
2019-03-05T09:28:02.238Z,61.68
2019-03-05T09:29:02.245Z,61.96
2019-03-05T09:30:02.183Z,61.79
2019-03-05T09:31:02.161Z,62.09
2019-03-05T09:32:02.153Z,62.19
2019-03-05T09:33:02.183Z,61.88
2019-03-05T09:34:02.134Z,61.86
2019-03-05T09:35:02.125Z,62.48
2019-03-05T09:36:02.117Z,62.68
2019-03-05T09:37:02.091Z,62.99
2019-03-05T09:38:02.102Z,61.55
2019-03-05T09:39:03.178Z,62.71
2019-03-05T09:40:02.065Z,62.92
2019-03-05T09:41:02.055Z,63.32
2019-03-05T09:42:02.044Z,63.32
2019-03-05T09:43:02.035Z,63.74
2019-03-05T09:44:02.136Z,63.97
2019-03-05T09:45:02.019Z,63.67
2019-03-05T09:46:02.002Z,63.05
2019-03-05T09:47:01.999Z,63.87
2019-03-05T09:48:01.976Z,63.35
2019-03-05T09:49:01.989Z,63.76
2019-03-05T09:50:01.959Z,63.76
2019-03-05T09:51:01.945Z,66.16
2019-03-05T09:52:01.948Z,66.58
2019-03-05T09:53:01.919Z,66.99
2019-03-05T09:54:01.934Z,66.88
2019-03-05T09:55:01.905Z,67.53
2019-03-05T09:56:01.906Z,67.22
2019-03-05T09:57:01.879Z,66.81
2019-03-05T09:58:07.879Z,66.91
2019-03-05T09:59:02.882Z,66.91
2019-03-05T10:00:01.845Z,66.50
2019-03-05T10:01:01.836Z,66.40
2019-03-05T10:02:01.831Z,66.50
2019-03-05T10:03:01.815Z,66.61
2019-03-05T10:04:01.843Z,66.30
2019-03-05T10:05:01.848Z,66.64
2019-03-05T10:06:01.791Z,66.61
2019-03-05T10:07:01.780Z,66.40
2019-03-05T10:08:01.759Z,66.06
2019-03-05T10:09:01.754Z,65.75
2019-03-05T10:10:01.753Z,65.75
2019-03-05T10:11:01.725Z,66.06
2019-03-05T10:12:01.765Z,65.95
2019-03-05T10:13:04.372Z,65.83
2019-03-05T10:14:01.689Z,65.52
2019-03-05T10:15:01.701Z,65.52
2019-03-05T10:16:01.687Z,65.20
2019-03-05T10:17:01.659Z,64.76
2019-03-05T10:18:12.212Z,64.15
2019-03-05T10:19:04.475Z,63.43
2019-03-05T10:20:01.671Z,62.71
2019-03-05T10:21:01.620Z,61.86
2019-03-05T10:22:01.600Z,61.24
2019-03-05T10:23:01.597Z,61.32
2019-03-05T10:24:10.009Z,61.24
2019-03-05T10:25:05.973Z,61.14
2019-03-05T10:26:01.559Z,60.80
2019-03-05T10:27:01.547Z,59.98
2019-03-05T10:28:01.538Z,59.77
2019-03-05T10:29:01.643Z,59.13
2019-03-05T10:30:01.538Z,59.75
2019-03-05T10:31:01.535Z,59.75
2019-03-05T10:32:01.509Z,58.92
2019-03-05T10:33:01.485Z,59.06
2019-03-05T10:34:01.483Z,58.95
2019-03-05T10:35:01.470Z,58.03
2019-03-05T10:36:01.477Z,57.93
2019-03-05T10:37:12.131Z,58.21
2019-03-05T10:38:02.427Z,58.00
2019-03-05T10:39:01.421Z,56.98
2019-03-05T10:40:01.419Z,56.56
2019-03-05T10:41:01.453Z,56.28
2019-03-05T10:42:01.395Z,56.77
2019-03-05T10:43:08.535Z,55.74
2019-03-05T10:44:02.360Z,56.05
2019-03-05T10:45:01.374Z,56.46
2019-03-05T10:46:01.366Z,55.74
2019-03-05T10:47:01.353Z,56.26
2019-03-05T10:48:01.331Z,56.05
2019-03-05T10:49:01.340Z,56.43
2019-03-05T10:50:01.297Z,55.82
2019-03-05T10:51:01.307Z,56.02
2019-03-05T10:52:01.277Z,55.92
2019-03-05T10:53:01.269Z,56.02
2019-03-05T10:54:02.219Z,55.72
2019-03-05T10:55:01.255Z,56.34
2019-03-05T10:56:01.278Z,56.02
2019-03-05T10:57:01.285Z,55.82
2019-03-05T10:58:01.212Z,56.23
2019-03-05T10:59:01.210Z,55.82
2019-03-05T11:00:01.213Z,55.62
2019-03-05T11:01:01.192Z,55.92
2019-03-05T11:02:01.252Z,56.13
2019-03-05T11:03:01.166Z,55.00
2019-03-05T11:04:01.154Z,54.72
2019-03-05T11:05:01.145Z,54.51
2019-03-05T11:06:01.137Z,55.43
2019-03-05T11:07:01.143Z,55.66
2019-03-05T11:08:01.116Z,55.95
2019-03-05T11:09:01.091Z,55.64
2019-03-05T11:10:01.094Z,55.54
2019-03-05T11:11:01.085Z,55.57
2019-03-05T11:12:01.099Z,55.74
2019-03-05T11:13:01.104Z,55.85
2019-03-05T11:14:01.043Z,55.87
2019-03-05T11:15:01.062Z,55.57
2019-03-05T11:16:01.027Z,55.64
2019-03-05T11:17:01.029Z,55.95
2019-03-05T11:18:01.022Z,55.85
2019-03-05T11:19:00.980Z,55.51
2019-03-05T11:20:00.986Z,55.00
2019-03-05T11:21:00.993Z,54.36
2019-03-05T11:22:00.983Z,53.74
2019-03-05T11:23:00.967Z,53.20
2019-03-05T11:24:00.971Z,53.20
2019-03-05T11:25:00.916Z,52.69
2019-03-05T11:26:00.912Z,53.95
2019-03-05T11:27:00.919Z,53.54
2019-03-05T11:28:00.927Z,53.95
2019-03-05T11:29:00.901Z,54.66
2019-03-05T11:30:00.878Z,54.66
2019-03-05T11:31:00.854Z,54.46
2019-03-05T11:32:00.853Z,54.66
2019-03-05T11:33:00.837Z,54.15
2019-03-05T11:34:00.873Z,54.57
2019-03-05T11:35:00.841Z,54.79
2019-03-05T11:36:00.793Z,54.49
2019-03-05T11:37:00.798Z,55.51
2019-03-05T11:38:00.778Z,54.69
2019-03-05T11:39:00.789Z,54.28
2019-03-05T11:40:00.769Z,54.49
2019-03-05T11:41:00.755Z,54.18
2019-03-05T11:42:00.733Z,54.08
2019-03-05T11:43:00.731Z,54.41
2019-03-05T11:44:00.734Z,54.30
2019-03-05T11:45:07.644Z,54.30
2019-03-05T11:46:01.723Z,54.51
2019-03-05T11:47:00.726Z,54.28
2019-03-05T11:48:00.673Z,54.72
2019-03-05T11:49:00.772Z,54.00
2019-03-05T11:50:00.714Z,54.51
2019-03-05T11:51:00.651Z,54.92
2019-03-05T11:52:00.659Z,55.23
2019-03-05T11:53:00.633Z,55.02
2019-03-05T11:54:00.620Z,55.02
2019-03-05T11:55:00.625Z,54.82
2019-03-05T11:56:00.613Z,55.43
2019-03-05T11:57:01.575Z,55.54
2019-03-05T11:58:00.579Z,55.98
2019-03-05T11:59:00.559Z,61.93
2019-03-05T12:00:00.589Z,62.92
2019-03-05T12:01:00.535Z,64.46
2019-03-05T12:02:00.524Z,63.46
2019-03-05T12:03:00.522Z,64.79
2019-03-05T12:04:00.514Z,65.00
2019-03-05T12:05:00.526Z,64.51
2019-03-05T12:06:00.504Z,64.07
2019-03-05T12:07:00.471Z,59.46
2019-03-05T12:08:00.464Z,57.35
2019-03-05T12:09:00.465Z,54.28
2019-03-05T12:10:00.439Z,51.84
2019-03-05T12:11:00.445Z,52.83
2019-03-05T12:12:00.409Z,50.54
2019-03-05T12:13:00.403Z,48.64
2019-03-05T12:14:00.401Z,47.72
2019-03-05T12:15:00.412Z,47.80
2019-03-05T12:16:00.393Z,45.83
2019-03-05T12:17:00.357Z,45.64
2019-03-05T12:18:00.487Z,48.19
2019-03-05T12:19:00.342Z,50.12
2019-03-05T12:20:00.378Z,51.73
2019-03-05T12:21:00.397Z,51.45
2019-03-05T12:22:00.311Z,51.57
2019-03-05T12:23:02.229Z,52.59
2019-03-05T12:24:00.361Z,52.70
2019-03-05T12:25:01.906Z,52.49
2019-03-05T12:26:00.286Z,53.08
2019-03-05T12:27:00.267Z,50.30
2019-03-05T12:28:09.657Z,51.53
2019-03-05T12:29:01.219Z,50.17
2019-03-05T12:30:00.435Z,50.58
2019-03-05T12:31:00.253Z,47.81
2019-03-05T12:32:00.216Z,45.81
2019-03-05T12:33:00.173Z,45.71
2019-03-05T12:34:00.170Z,44.75
2019-03-05T12:35:00.293Z,45.85
2019-03-05T12:36:00.170Z,47.45
2019-03-05T12:37:00.144Z,48.49
2019-03-05T12:38:00.158Z,48.84
2019-03-05T12:39:00.130Z,48.72
2019-03-05T12:40:00.196Z,48.39
2019-03-05T12:41:00.108Z,46.28
2019-03-05T12:42:00.085Z,43.75
2019-03-05T12:43:00.088Z,42.80
2019-03-05T12:44:00.088Z,44.34
2019-03-05T12:45:00.062Z,44.08
2019-03-05T12:46:00.078Z,41.60
2019-03-05T12:47:00.035Z,41.97
2019-03-05T12:48:00.086Z,40.97
2019-03-05T12:49:00.019Z,43.16
2019-03-05T12:49:59.997Z,43.93
2019-03-05T12:51:00.000Z,45.36
2019-03-05T12:52:00.041Z,48.72